Aérodrome :
LOGIN :

S'inscrire | Disclaimer

   EN    FR    IT 

 










Légende :    VFR   VFR Marginal   IFR   IFR Intensif   IFR Très Intensif
Visi : 
Plafond : 
>= 8 km
>= 3000ft
5 à 8 km
1000 à 3000 ft
1500m à 5 km
500 à 1000 ft
800 à 1500m
200 à 500 ft
< 800m
< 200 ft
Symboles :   Orages  Brouillard  Fortes neiges  Fortes précipitations  Vent > 20 kt
SIGMETs :   Divers  Orages  Givrage  Turbulence  Onde Orograph.  Cendres Volcan.







- Altitude de l'aérodrome : 184 ft
- Code IATA : BRU


EBBR - Bruxelles

DERNIER METAR :
  • 160720Z 18006KT 9999 BKN030 18/14 Q1017 NOSIG

METARs EXPIRÉS :
  • 160650Z 19006KT 9999 BKN030 17/14 Q1017 NOSIG
  • 160620Z 18005KT 9999 BKN030 17/14 Q1017 NOSIG
  • 160550Z 18005KT 9999 BKN029 17/14 Q1017 NOSIG
  • 160520Z 19006KT 9999 BKN028 16/13 Q1017 NOSIG
  • 160450Z 18006KT 9999 BKN030 16/13 Q1017 NOSIG

TAF TAF EBBR
Valide du 16 à 06h jusqu'au 17 à 12h UTC


160520Z 1606/1712 20006KT 9999 SCT025
PROB30
TEMPO 1614/1618 VRB15G25KT
PROB40
TEMPO 1622/1704 VRB18G30KT 2200 SHRA TSRA BKN006CB
PROB30
TEMPO 1704/1707 4000 BR
Pas de NOTAMs connus pour ce terrain.



MET'MAP, la Météo Aéronautique d'un coup d'oeil ! - Copyright ORBIFLY Décembre 2007 - Disclaimer

ORBIFLY MET'MAP TEAM :

Programmation & Développement : Alexandra Zaïnal
Conception & Développement : Baudouin d'Aumeries
Co-Programmation & Développement : Marc-Olivier Méhu
Soutien technique & logistique : Manuel Goepfert

Contact : metmap@orbifly.com




SOURCES & CREDITS :

   NOAA